Time;durP1;ratioP1;P1;durP2;ratioP2;P2;SDS_P1;SDS_P2;PMS_P1;PMS_P2;Temp;Humidity;BMP_temperature;BMP_pressure;BME280_temperature;BME280_humidity;BME280_pressure;Samples;Min_cycle;Max_cycle;Signal;HPM_P1;HPM_P2
2023/01/24 00:02:10;;;;;;;;;;;;;;;4.54;96.27;101032.19;5092508;28;20431;-42
2023/01/24 00:04:36;;;;;;;;;;;;;;;4.38;95.71;101033.50;5092297;28;19915;-42
2023/01/24 00:07:01;;;;;;;;;;;;;;;4.25;97.03;101044.25;5092489;28;20283;-42
2023/01/24 00:09:26;;;;;;;;;;;;;;;4.35;96.68;101039.03;5092287;28;20002;-42
2023/01/24 00:11:51;;;;;;;;;;;;;;;4.18;96.83;101045.75;5092263;28;19969;-42
2023/01/24 00:14:17;;;;;;;;;;;;;;;4.18;97.10;101051.00;5092313;28;19999;-42
2023/01/24 00:16:42;;;;;;;;;;;;;;;4.24;96.52;101052.28;5092155;28;20476;-42
2023/01/24 00:19:07;;;;;;;;;;;;;;;4.21;97.14;101050.75;5091963;28;19916;-42
2023/01/24 00:21:32;;;;;;;;;;;;;;;4.39;95.87;101043.06;5091868;28;20007;-42
2023/01/24 00:23:58;;;;;;;;;;;;;;;4.12;96.23;101046.25;5091970;28;19915;-42
2023/01/24 00:26:24;;;;;;;;;;;;;;;4.21;96.19;101050.75;5091910;28;19916;-42
2023/01/24 00:28:49;;;;;;;;;;;;;;;4.22;97.02;101052.41;5091610;28;20383;-42
2023/01/24 00:31:15;;;;;;;;;;;;;;;4.29;96.20;101053.56;5091858;28;19969;-42
2023/01/24 00:33:41;;;;;;;;;;;;;;;4.39;95.34;101042.25;5092229;28;20386;-42
2023/01/24 00:36:06;;;;;;;;;;;;;;;4.20;95.42;101046.44;5092348;28;19912;-42
2023/01/24 00:38:32;;;;;;;;;;;;;;;4.35;96.17;101057.47;5092321;28;19935;-42
2023/01/24 00:40:57;;;;;;;;;;;;;;;4.31;96.36;101045.53;5092583;28;19970;-42
2023/01/24 00:43:23;;;;;;;;;;;;;;;4.15;97.20;101059.19;5092211;28;19939;-42
2023/01/24 00:45:48;;;;;;;;;;;;;;;3.94;98.50;101060.97;5092623;28;19916;-42
2023/01/24 00:48:14;;;;;;;;;;;;;;;4.54;96.37;101053.28;5092188;28;20435;-42
2023/01/24 00:50:39;;;;;;;;;;;;;;;4.42;95.14;101053.38;5092587;28;19912;-42
2023/01/24 00:53:04;;;;;;;;;;;;;;;4.50;95.70;101058.81;5092246;28;19916;-42
2023/01/24 00:55:30;;;;;;;;;;;;;;;4.37;95.99;101066.09;5092335;28;19912;-42
2023/01/24 00:57:55;;;;;;;;;;;;;;;3.95;97.89;101065.28;5092218;28;20372;-42
2023/01/24 01:00:21;;;;;;;;;;;;;;;4.21;97.45;101057.84;5091783;28;19973;-42
2023/01/24 01:02:47;;;;;;;;;;;;;;;4.11;97.17;101057.75;5092340;28;20317;-42
2023/01/24 01:05:13;;;;;;;;;;;;;;;4.22;96.76;101052.41;5092206;28;19954;-42
2023/01/24 01:07:38;;;;;;;;;;;;;;;4.17;97.69;101062.53;5092091;28;19912;-42
2023/01/24 01:10:04;;;;;;;;;;;;;;;4.30;96.46;101057.03;5091911;28;19950;-43
2023/01/24 01:12:29;;;;;;;;;;;;;;;4.13;96.34;101071.63;5091930;28;19912;-42
2023/01/24 01:14:54;;;;;;;;;;;;;;;4.26;97.36;101053.81;5091722;28;20320;-42
2023/01/24 01:17:20;;;;;;;;;;;;;;;4.17;97.32;101059.91;5091922;28;19911;-42
2023/01/24 01:19:45;;;;;;;;;;;;;;;4.17;97.02;101061.66;5091668;28;20360;-42
2023/01/24 01:22:10;;;;;;;;;;;;;;;4.03;97.74;101052.31;5091676;28;19973;-42
2023/01/24 01:24:36;;;;;;;;;;;;;;;4.40;97.22;101051.81;5091726;28;20336;-42
2023/01/24 01:27:02;;;;;;;;;;;;;;;4.21;97.57;101058.66;5092013;28;19927;-42
2023/01/24 01:29:27;;;;;;;;;;;;;;;4.22;96.81;101054.22;5091736;28;19912;-42
2023/01/24 01:31:52;;;;;;;;;;;;;;;4.38;96.75;101065.16;5091679;28;19913;-42
2023/01/24 01:34:17;;;;;;;;;;;;;;;4.29;96.46;101063.28;5091920;28;19926;-42
2023/01/24 01:36:43;;;;;;;;;;;;;;;4.15;97.38;101064.47;5091581;28;20291;-42
2023/01/24 01:39:08;;;;;;;;;;;;;;;4.40;96.71;101059.72;5091670;28;19958;-42
2023/01/24 01:41:33;;;;;;;;;;;;;;;4.22;96.71;101057.69;5091260;28;19912;-42
2023/01/24 01:47:02;;;;;;;;;;;;;;;4.18;96.37;101068.63;5091869;28;19926;-42
2023/01/24 01:49:28;;;;;;;;;;;;;;;4.27;96.21;101057.31;5091384;28;20394;-42
2023/01/24 01:51:58;;;;;;;;;;;;;;;4.37;95.76;101052.91;5091422;28;19916;-42
2023/01/24 01:54:31;;;;;;;;;;;;;;;4.25;96.05;101051.34;5091551;28;20284;-45
2023/01/24 01:57:02;;;;;;;;;;;;;;;4.21;95.88;101049.94;5091356;28;19912;-43
2023/01/24 01:59:34;;;;;;;;;;;;;;;4.02;96.74;101067.28;5091457;28;19916;-43
2023/01/24 02:02:00;;;;;;;;;;;;;;;3.85;97.59;101057.31;5091375;28;20003;-43
2023/01/24 02:04:28;;;;;;;;;;;;;;;3.91;97.14;101057.63;5091869;28;19981;-43
2023/01/24 02:06:59;;;;;;;;;;;;;;;4.07;97.56;101054.56;5091519;28;19916;-42
2023/01/24 02:09:28;;;;;;;;;;;;;;;4.26;96.38;101053.81;5091146;28;19915;-43
2023/01/24 02:11:56;;;;;;;;;;;;;;;3.94;96.48;101056.56;5091309;28;19912;-43
2023/01/24 02:17:08;;;;;;;;;;;;;;;3.76;96.88;101063.34;5091328;28;19967;-42
2023/01/24 02:19:51;;;;;;;;;;;;;;;4.04;95.45;101064.53;5090968;28;20387;-42
2023/01/24 02:22:22;;;;;;;;;;;;;;;3.95;96.10;101073.19;5091427;28;19970;-43
2023/01/24 02:25:12;;;;;;;;;;;;;;;4.01;95.35;101083.22;5091325;28;19921;-41
2023/01/24 02:27:38;;;;;;;;;;;;;;;3.65;97.10;101072.13;5092382;28;19912;-41
2023/01/24 02:30:04;;;;;;;;;;;;;;;3.87;97.17;101084.38;5094846;28;19916;-41
2023/01/24 02:32:29;;;;;;;;;;;;;;;4.00;96.60;101082.38;5094242;28;20384;-41
2023/01/24 02:34:55;;;;;;;;;;;;;;;4.00;96.59;101084.16;5094708;28;19912;-43
2023/01/24 02:37:20;;;;;;;;;;;;;;;3.66;96.52;101076.44;5094661;28;19916;-42
2023/01/24 02:39:57;;;;;;;;;;;;;;;3.82;96.35;101079.47;5094655;28;20011;-42
2023/01/24 02:42:26;;;;;;;;;;;;;;;3.74;96.83;101081.91;5093835;28;19916;-41
2023/01/24 02:45:02;;;;;;;;;;;;;;;3.72;97.26;101074.13;5094474;28;19912;-41
2023/01/24 02:47:32;;;;;;;;;;;;;;;3.77;97.11;101097.47;5094600;28;19912;-42
2023/01/24 02:49:57;;;;;;;;;;;;;;;4.11;96.75;101086.72;5094257;28;20292;-42
2023/01/24 02:55:07;;;;;;;;;;;;;;;3.87;97.52;101092.25;5094494;28;20066;-43
2023/01/24 03:00:16;;;;;;;;;;;;;;;4.16;95.33;101087.19;5094149;28;19979;-42
2023/01/24 03:02:41;;;;;;;;;;;;;;;3.59;97.12;101077.91;5094127;28;19999;-42
2023/01/24 03:05:06;;;;;;;;;;;;;;;3.67;98.82;101086.81;5094208;28;20249;-42
2023/01/24 03:07:41;;;;;;;;;;;;;;;3.67;98.63;101078.09;5094212;28;20002;-42
2023/01/24 03:10:07;;;;;;;;;;;;;;;3.76;97.81;101082.63;5094053;28;19912;-42
2023/01/24 03:34:45;;;;;;;;;;;;;;;3.54;99.46;101083.53;5093912;28;19971;-44
2023/01/24 03:37:11;;;;;;;;;;;;;;;3.60;100.00;101072.50;5094033;28;20007;-43
2023/01/24 03:39:58;;;;;;;;;;;;;;;3.75;98.50;101078.31;5093110;28;19999;-44
2023/01/24 03:42:23;;;;;;;;;;;;;;;3.99;97.61;101077.25;5092091;28;19913;-44
2023/01/24 03:44:48;;;;;;;;;;;;;;;3.99;97.67;101077.25;5093572;28;19912;-41
2023/01/24 03:47:14;;;;;;;;;;;;;;;3.76;97.62;101084.41;5093437;28;19923;-42
2023/01/24 03:52:29;;;;;;;;;;;;;;;3.39;99.88;101076.88;5093215;28;20009;-42
2023/01/24 03:54:55;;;;;;;;;;;;;;;3.64;99.10;101081.81;5093327;28;19993;-42
2023/01/24 03:57:20;;;;;;;;;;;;;;;3.35;98.92;101076.31;5092879;28;19912;-42
2023/01/24 03:59:46;;;;;;;;;;;;;;;3.30;97.57;101075.84;5092410;28;19917;-42
2023/01/24 04:02:11;;;;;;;;;;;;;;;3.05;98.65;101080.44;5092934;28;19912;-41
2023/01/24 04:07:20;;;;;;;;;;;;;;;3.38;98.95;101083.94;5093240;28;19926;-43
2023/01/24 04:09:45;;;;;;;;;;;;;;;3.16;99.78;101070.84;5092893;28;19912;-43
2023/01/24 04:12:10;;;;;;;;;;;;;;;3.34;98.84;101072.00;5093212;28;19916;-43
2023/01/24 04:14:36;;;;;;;;;;;;;;;3.46;97.80;101078.06;5092818;28;19912;-44
2023/01/24 04:17:01;;;;;;;;;;;;;;;3.16;98.40;101076.97;5092024;28;19912;-43
2023/01/24 04:19:26;;;;;;;;;;;;;;;3.09;99.67;101075.75;5092460;28;19920;-42
2023/01/24 04:21:51;;;;;;;;;;;;;;;2.96;99.42;101062.75;5091386;28;20160;-43
2023/01/24 04:24:17;;;;;;;;;;;;;;;3.36;99.10;101083.22;5092780;28;19912;-43
2023/01/24 04:26:42;;;;;;;;;;;;;;;2.98;99.22;101071.34;5092670;28;19912;-43
2023/01/24 04:29:07;;;;;;;;;;;;;;;3.13;98.98;101066.66;5092738;28;19980;-43
2023/01/24 04:31:33;;;;;;;;;;;;;;;3.16;99.12;101073.47;5092582;28;19912;-43
2023/01/24 04:33:58;;;;;;;;;;;;;;;3.04;100.00;101078.75;5092362;28;19919;-44
2023/01/24 04:36:23;;;;;;;;;;;;;;;3.12;99.64;101078.13;5092255;28;19981;-42
2023/01/24 04:38:48;;;;;;;;;;;;;;;3.14;99.70;101078.84;5092332;28;19919;-42
2023/01/24 04:41:14;;;;;;;;;;;;;;;3.18;99.08;101072.41;5092276;28;19919;-43
2023/01/24 04:43:39;;;;;;;;;;;;;;;3.22;98.77;101076.47;5092009;28;19920;-42
2023/01/24 04:46:05;;;;;;;;;;;;;;;3.28;98.23;101085.66;5092250;28;19919;-42
2023/01/24 04:48:30;;;;;;;;;;;;;;;3.23;98.24;101079.91;5092319;28;19951;-42
2023/01/24 04:50:59;;;;;;;;;;;;;;;3.28;98.07;101083.84;5091340;28;20341;-42
2023/01/24 04:53:24;;;;;;;;;;;;;;;3.51;96.57;101086.41;5091887;28;20414;-42
2023/01/24 04:55:50;;;;;;;;;;;;;;;3.26;96.54;101082.31;5092034;28;19912;-43
2023/01/24 04:58:15;;;;;;;;;;;;;;;3.12;96.66;101091.28;5091691;28;19920;-42
2023/01/24 05:00:40;;;;;;;;;;;;;;;3.28;96.82;101091.75;5092251;28;19912;-43
2023/01/24 05:03:05;;;;;;;;;;;;;;;3.69;99.69;101087.56;5091828;28;20354;-44
2023/01/24 05:05:31;;;;;;;;;;;;;;;4.76;100.00;101090.03;5091431;28;20277;-44
2023/01/24 05:07:56;;;;;;;;;;;;;;;5.59;97.73;101085.31;5091196;28;20006;-43
2023/01/24 05:10:23;;;;;;;;;;;;;;;5.35;90.39;101090.16;5091107;28;19940;-43
2023/01/24 05:12:48;;;;;;;;;;;;;;;4.88;93.74;101088.13;5091137;28;20426;-43
2023/01/24 05:15:13;;;;;;;;;;;;;;;5.00;90.49;101091.47;5091636;28;19916;-42
2023/01/24 05:17:39;;;;;;;;;;;;;;;5.17;91.00;101097.91;5091535;28;19922;-41
2023/01/24 05:20:04;;;;;;;;;;;;;;;5.15;91.17;101099.84;5090857;28;19928;-40
2023/01/24 05:22:29;;;;;;;;;;;;;;;5.90;91.03;101095.75;5091145;28;19912;-41
2023/01/24 05:24:56;;;;;;;;;;;;;;;5.80;85.05;101094.94;5090050;28;21358;-41
2023/01/24 05:27:22;;;;;;;;;;;;;;;4.48;87.13;101099.47;5091066;28;19909;-42
2023/01/24 05:29:47;;;;;;;;;;;;;;;4.19;91.10;101101.91;5091095;28;20068;-43
2023/01/24 05:32:12;;;;;;;;;;;;;;;4.42;88.91;101100.00;5091046;28;20359;-41
2023/01/24 05:34:38;;;;;;;;;;;;;;;3.66;92.80;101108.03;5091125;28;19919;-42
2023/01/24 05:37:03;;;;;;;;;;;;;;;3.43;93.48;101112.53;5091163;28;20153;-42
2023/01/24 05:39:28;;;;;;;;;;;;;;;3.19;94.06;101113.53;5091019;28;19916;-41
2023/01/24 05:41:53;;;;;;;;;;;;;;;3.22;95.17;101117.69;5091214;28;19969;-41
2023/01/24 05:44:19;;;;;;;;;;;;;;;3.53;94.23;101105.56;5090976;28;19912;-42
2023/01/24 05:46:44;;;;;;;;;;;;;;;2.83;96.40;101099.69;5091027;28;19919;-41
2023/01/24 05:49:09;;;;;;;;;;;;;;;2.88;96.73;101100.16;5089948;28;19982;-41
2023/01/24 05:51:35;;;;;;;;;;;;;;;3.11;97.00;101114.13;5090796;28;19913;-41
2023/01/24 05:54:00;;;;;;;;;;;;;;;3.06;95.70;101118.91;5090830;28;19912;-41
2023/01/24 05:56:25;;;;;;;;;;;;;;;3.18;96.09;101117.13;5090620;28;19912;-41
2023/01/24 05:58:50;;;;;;;;;;;;;;;3.64;93.64;101112.59;5090800;28;19912;-42
2023/01/24 06:01:17;;;;;;;;;;;;;;;3.69;92.75;101120.94;5090658;28;19923;-41
2023/01/24 06:03:43;;;;;;;;;;;;;;;3.28;94.30;101133.00;5094179;28;19916;-42
2023/01/24 06:06:10;;;;;;;;;;;;;;;3.20;94.05;101127.50;5087980;28;19916;-42
2023/01/24 06:08:35;;;;;;;;;;;;;;;3.42;93.64;101134.53;5087745;28;19920;-41
2023/01/24 06:11:02;;;;;;;;;;;;;;;3.42;93.15;101140.63;5093448;28;20052;-41
2023/01/24 06:13:27;;;;;;;;;;;;;;;3.01;94.57;101150.03;5095040;28;19955;-41
2023/01/24 06:15:59;;;;;;;;;;;;;;;3.22;94.22;101149.25;5094938;28;19970;-41
2023/01/24 06:18:25;;;;;;;;;;;;;;;3.13;94.98;101149.03;5095280;28;19944;-42
2023/01/24 06:20:50;;;;;;;;;;;;;;;3.64;94.30;101146.81;5094334;28;19966;-42
2023/01/24 06:23:33;;;;;;;;;;;;;;;3.66;92.36;101144.91;5094783;28;20413;-42
2023/01/24 06:26:01;;;;;;;;;;;;;;;3.29;93.09;101153.09;5094760;28;20367;-42
2023/01/24 06:28:27;;;;;;;;;;;;;;;3.28;94.42;101160.16;5093754;28;20379;-42
2023/01/24 06:31:12;;;;;;;;;;;;;;;3.22;94.53;101160.66;5093252;28;20008;-42
2023/01/24 06:33:47;;;;;;;;;;;;;;;3.11;94.28;101142.25;5088733;28;19974;-41
2023/01/24 06:36:35;;;;;;;;;;;;;;;3.19;93.88;101146.91;5092780;28;19923;-42
2023/01/24 06:39:00;;;;;;;;;;;;;;;3.33;93.98;101149.25;5091233;28;19927;-42
2023/01/24 06:41:25;;;;;;;;;;;;;;;3.58;93.46;101161.31;5088724;28;19920;-42
2023/01/24 06:43:51;;;;;;;;;;;;;;;3.42;92.54;101166.94;5076856;28;19920;-41
2023/01/24 06:46:16;;;;;;;;;;;;;;;3.90;93.16;101177.13;5105609;28;19970;-42
2023/01/24 06:48:42;;;;;;;;;;;;;;;4.10;90.62;101182.56;5089204;28;20415;-42
2023/01/24 06:51:09;;;;;;;;;;;;;;;3.90;91.58;101171.00;5093921;28;19923;-43
2023/01/24 06:53:35;;;;;;;;;;;;;;;3.58;92.02;101173.63;5092245;28;19916;-42
2023/01/24 06:56:00;;;;;;;;;;;;;;;3.61;92.29;101182.09;5092582;28;20349;-42
2023/01/24 06:58:25;;;;;;;;;;;;;;;3.48;92.88;101184.03;5093218;28;19912;-43
2023/01/24 07:00:52;;;;;;;;;;;;;;;4.04;91.88;101183.91;5092549;28;19928;-42
2023/01/24 07:03:17;;;;;;;;;;;;;;;3.47;91.52;101177.94;5091806;28;20203;-43
2023/01/24 07:05:42;;;;;;;;;;;;;;;3.20;93.71;101182.75;5091551;28;19912;-41
2023/01/24 07:08:08;;;;;;;;;;;;;;;3.16;93.48;101192.72;5091621;28;20367;-42
2023/01/24 07:10:33;;;;;;;;;;;;;;;3.32;92.48;101185.25;5091407;28;19916;-41
2023/01/24 07:12:58;;;;;;;;;;;;;;;3.06;94.19;101183.84;5091103;28;20010;-41
2023/01/24 07:15:24;;;;;;;;;;;;;;;3.37;93.03;101184.06;5092428;28;19938;-41
2023/01/24 07:17:49;;;;;;;;;;;;;;;3.22;91.27;101186.97;5092051;28;20352;-42
2023/01/24 07:20:15;;;;;;;;;;;;;;;3.20;92.21;101193.28;5091965;28;19931;-42
2023/01/24 07:22:41;;;;;;;;;;;;;;;3.10;92.50;101196.66;5092985;28;19912;-43
2023/01/24 07:25:11;;;;;;;;;;;;;;;3.11;91.56;101213.25;5092873;28;19930;-42
2023/01/24 07:27:37;;;;;;;;;;;;;;;3.18;92.84;101203.94;5093009;28;20395;-42
2023/01/24 07:30:03;;;;;;;;;;;;;;;3.63;90.39;101210.94;5092511;28;19912;-42
2023/01/24 07:32:28;;;;;;;;;;;;;;;3.61;88.55;101200.53;5092744;28;19912;-42
2023/01/24 07:34:53;;;;;;;;;;;;;;;3.32;89.64;101203.69;5092601;28;20347;-43
2023/01/24 07:37:21;;;;;;;;;;;;;;;2.96;90.20;101212.66;5092733;28;19919;-43
2023/01/24 07:39:46;;;;;;;;;;;;;;;3.11;90.31;101205.38;5092469;28;19923;-42
2023/01/24 07:42:11;;;;;;;;;;;;;;;3.20;90.42;101201.16;5092541;28;20245;-42
2023/01/24 07:44:37;;;;;;;;;;;;;;;3.24;89.07;101205.25;5092643;28;19919;-40
2023/01/24 07:47:02;;;;;;;;;;;;;;;3.24;90.59;101210.53;5092543;28;20374;-41
2023/01/24 07:49:27;;;;;;;;;;;;;;;3.07;89.72;101211.84;5092671;28;19923;-41
2023/01/24 07:51:53;;;;;;;;;;;;;;;3.20;89.51;101206.44;5092527;28;19912;-42
2023/01/24 07:54:19;;;;;;;;;;;;;;;3.18;89.68;101210.97;5092481;28;19916;-43
2023/01/24 07:56:45;;;;;;;;;;;;;;;3.11;89.48;101208.84;5092551;28;19916;-43
2023/01/24 07:59:10;;;;;;;;;;;;;;;3.11;88.78;101214.09;5092255;28;20319;-43
2023/01/24 08:01:35;;;;;;;;;;;;;;;3.17;88.87;101217.22;5092406;28;19913;-42
2023/01/24 08:04:01;;;;;;;;;;;;;;;3.15;88.60;101224.38;5092856;28;19955;-42
2023/01/24 08:06:26;;;;;;;;;;;;;;;3.51;87.66;101226.75;5092606;28;20364;-42
2023/01/24 08:08:51;;;;;;;;;;;;;;;3.20;86.67;101222.22;5092238;28;19912;-41
2023/01/24 08:11:17;;;;;;;;;;;;;;;2.85;87.85;101217.91;5092019;28;20435;-42
2023/01/24 08:13:45;;;;;;;;;;;;;;;3.21;87.21;101222.09;5091479;28;19912;-43
2023/01/24 08:16:10;;;;;;;;;;;;;;;3.37;86.03;101223.53;5092243;28;19912;-43
2023/01/24 08:18:37;;;;;;;;;;;;;;;3.12;86.40;101235.97;5092139;28;19923;-43
2023/01/24 08:21:04;;;;;;;;;;;;;;;3.11;86.60;101229.03;5091899;28;19932;-42
2023/01/24 08:23:29;;;;;;;;;;;;;;;3.15;86.20;101230.47;5091811;28;20411;-41
2023/01/24 08:25:56;;;;;;;;;;;;;;;3.11;86.48;101231.69;5090928;28;19915;-42
2023/01/24 08:28:22;;;;;;;;;;;;;;;3.11;86.29;101221.16;5091691;28;20310;-41
2023/01/24 08:30:47;;;;;;;;;;;;;;;3.40;86.43;101215.41;5091755;28;19939;-42
2023/01/24 08:33:18;;;;;;;;;;;;;;;3.36;85.84;101220.06;5091682;28;19996;-43
2023/01/24 08:35:44;;;;;;;;;;;;;;;3.38;85.62;101230.47;5091813;28;19969;-43
2023/01/24 08:38:10;;;;;;;;;;;;;;;3.35;86.26;101221.03;5092121;28;19920;-42
2023/01/24 08:40:35;;;;;;;;;;;;;;;3.20;86.71;101222.22;5091464;28;20244;-42
2023/01/24 08:43:01;;;;;;;;;;;;;;;3.57;86.00;101228.06;5090096;28;19916;-42
2023/01/24 08:45:26;;;;;;;;;;;;;;;3.55;84.84;101218.63;5091631;28;19948;-42
2023/01/24 08:47:52;;;;;;;;;;;;;;;3.36;85.53;101235.88;5091545;28;19912;-42
2023/01/24 08:50:19;;;;;;;;;;;;;;;3.63;85.67;101232.00;5091616;28;19973;-42
2023/01/24 08:52:44;;;;;;;;;;;;;;;3.77;84.11;101229.13;5092137;28;20006;-43
2023/01/24 08:55:10;;;;;;;;;;;;;;;3.61;83.20;101247.09;5091206;28;20011;-42
2023/01/24 08:57:35;;;;;;;;;;;;;;;3.59;83.73;101235.84;5091007;28;19919;-42
2023/01/24 09:00:00;;;;;;;;;;;;;;;3.51;84.66;101234.66;5091211;28;19917;-42
2023/01/24 09:02:26;;;;;;;;;;;;;;;3.75;82.67;101236.31;5091448;28;19923;-42
2023/01/24 09:04:51;;;;;;;;;;;;;;;3.96;81.66;101233.75;5091243;28;19919;-42
2023/01/24 09:07:16;;;;;;;;;;;;;;;3.81;81.57;101238.44;5090987;28;20436;-42
2023/01/24 09:09:41;;;;;;;;;;;;;;;3.72;82.56;101226.84;5091348;28;20019;-42
2023/01/24 09:12:07;;;;;;;;;;;;;;;3.36;83.40;101232.41;5090860;28;20426;-41
2023/01/24 09:14:32;;;;;;;;;;;;;;;3.69;82.63;101236.78;5090655;28;19920;-42
2023/01/24 09:16:57;;;;;;;;;;;;;;;3.97;80.93;101235.41;5090855;28;20318;-41
2023/01/24 09:19:26;;;;;;;;;;;;;;;3.98;81.11;101234.47;5090885;28;19934;-43
2023/01/24 09:21:54;;;;;;;;;;;;;;;3.67;81.65;101234.25;5090664;28;19921;-42
2023/01/24 09:24:19;;;;;;;;;;;;;;;3.71;81.17;101224.31;5090678;28;20371;-42
2023/01/24 09:26:45;;;;;;;;;;;;;;;3.85;81.83;101226.72;5090572;28;19912;-42
2023/01/24 09:29:10;;;;;;;;;;;;;;;3.66;81.72;101227.34;5090798;28;19912;-42
2023/01/24 09:31:35;;;;;;;;;;;;;;;3.65;82.59;101216.94;5090723;28;19912;-42
2023/01/24 09:34:01;;;;;;;;;;;;;;;4.44;79.41;101224.59;5090996;28;19920;-42
2023/01/24 09:36:27;;;;;;;;;;;;;;;4.37;80.17;101212.88;5091812;28;19912;-42
2023/01/24 09:38:52;;;;;;;;;;;;;;;4.07;80.02;101217.91;5094893;28;19912;-42
2023/01/24 09:41:36;;;;;;;;;;;;;;;3.91;80.44;101218.31;5094980;28;20393;-42
2023/01/24 09:44:07;;;;;;;;;;;;;;;3.75;80.65;101212.63;5094915;28;19981;-41
2023/01/24 09:46:36;;;;;;;;;;;;;;;3.55;82.41;101203.66;5094879;28;20041;-42
2023/01/24 09:49:12;;;;;;;;;;;;;;;4.03;80.60;101205.09;5094524;28;19938;-42
2023/01/24 09:51:45;;;;;;;;;;;;;;;4.10;80.01;101208.91;5094187;28;19921;-41
2023/01/24 09:54:15;;;;;;;;;;;;;;;3.78;81.28;101214.97;5094749;28;19912;-42
2023/01/24 09:56:41;;;;;;;;;;;;;;;3.85;80.66;101216.16;5094395;28;20285;-40
2023/01/24 09:59:15;;;;;;;;;;;;;;;3.49;82.97;101209.41;5094459;28;20019;-41
2023/01/24 10:01:41;;;;;;;;;;;;;;;3.85;81.13;101210.91;5094388;28;19920;-42
2023/01/24 10:04:14;;;;;;;;;;;;;;;4.16;79.90;101210.22;5094431;28;19944;-42
2023/01/24 10:06:41;;;;;;;;;;;;;;;4.07;79.85;101209.16;5094836;28;19912;-42
2023/01/24 10:09:17;;;;;;;;;;;;;;;4.13;80.30;101206.00;5094391;28;19943;-41
2023/01/24 10:11:54;;;;;;;;;;;;;;;4.06;79.39;101199.59;5094208;28;19919;-43
2023/01/24 10:14:32;;;;;;;;;;;;;;;3.98;79.68;101202.00;5094157;28;19973;-42
2023/01/24 10:17:12;;;;;;;;;;;;;;;4.01;78.89;101202.59;5093872;28;19919;-43
2023/01/24 10:20:05;;;;;;;;;;;;;;;4.07;79.50;101191.56;5093404;28;20406;-40
2023/01/24 10:22:31;;;;;;;;;;;;;;;4.35;78.11;101180.53;5094004;28;19920;-42
2023/01/24 10:25:16;;;;;;;;;;;;;;;4.65;76.61;101183.22;5093537;28;19912;-42
2023/01/24 10:27:44;;;;;;;;;;;;;;;4.61;76.61;101173.91;5093681;28;19970;-42
2023/01/24 10:30:18;;;;;;;;;;;;;;;4.92;76.49;101176.56;5094055;28;19976;-43
2023/01/24 10:32:45;;;;;;;;;;;;;;;4.64;75.75;101171.00;5093984;28;20421;-42
2023/01/24 10:35:17;;;;;;;;;;;;;;;4.33;76.93;101175.38;5093861;28;19912;-42
2023/01/24 10:37:44;;;;;;;;;;;;;;;4.23;77.32;101164.78;5093712;28;19925;-43
2023/01/24 10:40:11;;;;;;;;;;;;;;;4.35;77.12;101172.63;5093733;28;20005;-42
2023/01/24 10:42:36;;;;;;;;;;;;;;;4.17;76.95;101162.66;5093985;28;19923;-41
2023/01/24 10:45:21;;;;;;;;;;;;;;;4.33;77.21;101162.22;5093912;28;19912;-41
2023/01/24 10:47:56;;;;;;;;;;;;;;;4.78;75.07;101153.16;5092501;28;19912;-42
2023/01/24 10:50:23;;;;;;;;;;;;;;;4.23;76.12;101162.13;5093762;28;19912;-42
2023/01/24 10:52:49;;;;;;;;;;;;;;;4.20;77.58;101157.13;5093472;28;20003;-41
2023/01/24 10:55:25;;;;;;;;;;;;;;;4.47;76.42;101147.88;5093453;28;19946;-41
2023/01/24 10:57:51;;;;;;;;;;;;;;;4.84;75.50;101144.75;5093704;28;20012;-42
2023/01/24 11:00:19;;;;;;;;;;;;;;;4.57;75.53;101142.63;5093481;28;19912;-42
2023/01/24 11:02:51;;;;;;;;;;;;;;;4.86;75.73;101148.09;5093701;28;19916;-43
2023/01/24 11:05:18;;;;;;;;;;;;;;;4.67;75.67;101144.38;5093163;28;19916;-41
2023/01/24 11:07:48;;;;;;;;;;;;;;;4.64;75.13;101142.00;5093245;28;19967;-42
2023/01/24 11:10:16;;;;;;;;;;;;;;;4.77;75.51;101144.41;5093050;28;19951;-45
2023/01/24 11:12:53;;;;;;;;;;;;;;;4.73;76.54;101132.47;5093289;28;20368;-42
2023/01/24 11:15:20;;;;;;;;;;;;;;;4.73;75.32;101137.75;5092794;28;19912;-41
2023/01/24 11:17:46;;;;;;;;;;;;;;;4.64;75.75;101127.97;5093140;28;19916;-41
2023/01/24 11:20:21;;;;;;;;;;;;;;;4.83;75.78;101137.78;5092707;28;20011;-41
2023/01/24 11:22:50;;;;;;;;;;;;;;;4.69;75.13;101129.25;5092882;28;19962;-42
2023/01/24 11:25:15;;;;;;;;;;;;;;;4.55;75.31;101132.25;5092511;28;19923;-42
2023/01/24 11:27:44;;;;;;;;;;;;;;;4.56;75.26;101127.81;5092373;28;20299;-41
2023/01/24 11:30:12;;;;;;;;;;;;;;;4.76;75.10;101120.81;5093123;28;19919;-42
2023/01/24 11:32:38;;;;;;;;;;;;;;;4.69;75.61;101116.06;5092733;28;20354;-42
2023/01/24 11:35:08;;;;;;;;;;;;;;;4.97;75.27;101128.66;5092878;28;19923;-42
2023/01/24 11:37:52;;;;;;;;;;;;;;;4.80;75.00;101128.34;5092451;28;20080;-41
2023/01/24 11:40:21;;;;;;;;;;;;;;;4.66;74.87;101120.78;5093040;28;19927;-42
2023/01/24 11:42:49;;;;;;;;;;;;;;;4.50;76.75;101122.06;5092241;28;20307;-42
2023/01/24 11:45:35;;;;;;;;;;;;;;;4.75;76.11;101124.44;5092344;28;19912;-42
2023/01/24 11:48:15;;;;;;;;;;;;;;;4.83;75.01;101119.31;5092758;28;19951;-42
2023/01/24 11:50:45;;;;;;;;;;;;;;;4.72;75.44;101109.69;5092764;28;19912;-42
2023/01/24 11:53:13;;;;;;;;;;;;;;;4.67;75.30;101111.91;5092584;28;19912;-42
2023/01/24 11:55:45;;;;;;;;;;;;;;;4.40;76.37;101105.38;5092515;28;19912;-41
2023/01/24 11:58:23;;;;;;;;;;;;;;;4.69;75.79;101107.34;5092451;28;20010;-41
2023/01/24 12:00:48;;;;;;;;;;;;;;;4.92;75.53;101100.06;5092074;28;20038;-41
2023/01/24 12:03:37;;;;;;;;;;;;;;;4.78;74.93;101101.28;5092401;28;20007;-42
2023/01/24 12:06:11;;;;;;;;;;;;;;;4.66;75.32;101097.91;5092474;28;19912;-42
2023/01/24 12:08:52;;;;;;;;;;;;;;;4.82;74.93;101112.41;5092296;28;19912;-42
2023/01/24 12:11:26;;;;;;;;;;;;;;;4.53;75.98;101102.50;5092186;28;19920;-42
2023/01/24 12:14:00;;;;;;;;;;;;;;;4.36;77.96;101103.97;5091979;28;19916;-41
2023/01/24 12:16:32;;;;;;;;;;;;;;;4.69;76.23;101102.88;5092035;28;19916;-41
2023/01/24 12:19:23;;;;;;;;;;;;;;;4.84;75.83;101100.72;5091914;28;20348;-42
2023/01/24 12:21:48;;;;;;;;;;;;;;;4.92;75.28;101104.50;5091904;28;19931;-42
2023/01/24 12:24:32;;;;;;;;;;;;;;;5.02;74.96;101100.91;5091557;28;19920;-42
2023/01/24 12:27:04;;;;;;;;;;;;;;;4.98;74.21;101104.78;5091542;28;19918;-42
2023/01/24 12:29:42;;;;;;;;;;;;;;;4.85;74.77;101104.19;5091824;28;19969;-41
2023/01/24 12:32:07;;;;;;;;;;;;;;;4.50;76.06;101115.97;5091699;28;19951;-42
2023/01/24 12:34:36;;;;;;;;;;;;;;;4.64;76.89;101099.78;5091592;28;19961;-41
2023/01/24 12:37:12;;;;;;;;;;;;;;;4.99;76.32;101113.53;5091183;28;19958;-42
2023/01/24 12:39:50;;;;;;;;;;;;;;;5.11;75.73;101112.47;5091372;28;20463;-42
2023/01/24 12:42:18;;;;;;;;;;;;;;;5.08;74.59;101118.88;5091219;28;19920;-42
2023/01/24 12:45:04;;;;;;;;;;;;;;;4.96;74.60;101112.00;5091419;28;19920;-42
2023/01/24 12:47:39;;;;;;;;;;;;;;;5.21;74.20;101104.59;5091618;28;20311;-41
2023/01/24 12:50:07;;;;;;;;;;;;;;;5.27;74.16;101114.59;5091641;28;19919;-42
2023/01/24 12:52:40;;;;;;;;;;;;;;;5.27;74.14;101111.97;5091589;28;19916;-41
2023/01/24 12:55:17;;;;;;;;;;;;;;;5.07;74.50;101106.63;5091549;28;19916;-41
2023/01/24 12:57:50;;;;;;;;;;;;;;;5.09;74.41;101109.16;5091337;28;19919;-41
2023/01/24 13:00:17;;;;;;;;;;;;;;;5.15;75.01;101107.78;5091570;28;19942;-42
2023/01/24 13:02:52;;;;;;;;;;;;;;;5.28;74.09;101111.00;5091341;28;19919;-41
2023/01/24 13:05:17;;;;;;;;;;;;;;;5.46;74.11;101111.16;5091195;28;20417;-41
2023/01/24 13:07:42;;;;;;;;;;;;;;;5.32;74.08;101114.22;5090996;28;19912;-41
2023/01/24 13:10:19;;;;;;;;;;;;;;;5.36;74.20;101108.50;5090783;28;20267;-42
2023/01/24 13:12:45;;;;;;;;;;;;;;;5.36;73.59;101118.25;5090622;28;19998;-42
2023/01/24 13:15:18;;;;;;;;;;;;;;;5.19;74.37;101112.63;5090945;28;20092;-42
2023/01/24 13:17:43;;;;;;;;;;;;;;;5.29;73.64;101116.16;5090962;28;19920;-42
2023/01/24 13:20:11;;;;;;;;;;;;;;;5.28;74.02;101111.84;5090520;28;19989;-42
2023/01/24 13:22:40;;;;;;;;;;;;;;;5.50;73.79;101117.84;5090722;28;19912;-42
2023/01/24 13:25:05;;;;;;;;;;;;;;;5.30;73.52;101119.63;5091042;28;19916;-42
2023/01/24 13:27:30;;;;;;;;;;;;;;;5.11;75.15;101119.56;5090667;28;19927;-42
2023/01/24 13:30:14;;;;;;;;;;;;;;;5.52;73.69;101117.72;5090896;28;20010;-42